sensor_id;sensor_type;location;lat;lon;timestamp;pressure;altitude;pressure_sealevel;temperature;humidity
61537;BME280;48695;53.480;-6.300;2023-04-01T00:00:18;99637.44;;;12.83;76.13
61537;BME280;48695;53.480;-6.300;2023-04-01T00:02:43;99638.28;;;12.83;76.41
61537;BME280;48695;53.480;-6.300;2023-04-01T00:05:09;99638.28;;;12.83;76.49
61537;BME280;48695;53.480;-6.300;2023-04-01T00:07:36;99647.00;;;12.84;76.47
61537;BME280;48695;53.480;-6.300;2023-04-01T00:10:02;99640.19;;;12.80;76.56
61537;BME280;48695;53.480;-6.300;2023-04-01T00:12:27;99649.59;;;12.84;76.50
61537;BME280;48695;53.480;-6.300;2023-04-01T00:14:53;99648.75;;;12.83;76.37
61537;BME280;48695;53.480;-6.300;2023-04-01T00:17:18;99654.00;;;12.83;76.26
61537;BME280;48695;53.480;-6.300;2023-04-01T00:19:44;99650.53;;;12.83;76.15
61537;BME280;48695;53.480;-6.300;2023-04-01T00:22:09;99648.81;;;12.82;76.20
61537;BME280;48695;53.480;-6.300;2023-04-01T00:24:37;99647.97;;;12.81;75.82
61537;BME280;48695;53.480;-6.300;2023-04-01T00:27:03;99655.91;;;12.80;76.11
61537;BME280;48695;53.480;-6.300;2023-04-01T00:29:28;99657.78;;;12.78;75.90
61537;BME280;48695;53.480;-6.300;2023-04-01T00:31:56;99656.84;;;12.79;75.96
61537;BME280;48695;53.480;-6.300;2023-04-01T00:34:22;99659.50;;;12.77;76.24
61537;BME280;48695;53.480;-6.300;2023-04-01T00:36:49;99668.31;;;12.76;75.72
61537;BME280;48695;53.480;-6.300;2023-04-01T00:39:15;99657.91;;;12.75;75.70
61537;BME280;48695;53.480;-6.300;2023-04-01T00:41:41;99658.84;;;12.73;76.08
61537;BME280;48695;53.480;-6.300;2023-04-01T00:44:19;99592.72;;;12.32;75.39
61537;BME280;48695;53.480;-6.300;2023-04-01T00:46:45;99661.50;;;12.72;75.68
61537;BME280;48695;53.480;-6.300;2023-04-01T00:49:12;99647.25;;;12.60;75.54
61537;BME280;48695;53.480;-6.300;2023-04-01T00:51:38;99660.81;;;12.68;75.74
61537;BME280;48695;53.480;-6.300;2023-04-01T00:54:06;99662.66;;;12.66;75.21
61537;BME280;48695;53.480;-6.300;2023-04-01T00:56:34;99659.13;;;12.67;74.66
61537;BME280;48695;53.480;-6.300;2023-04-01T00:59:13;99661.88;;;12.64;74.73
61537;BME280;48695;53.480;-6.300;2023-04-01T01:01:40;99657.09;;;12.55;75.36
61537;BME280;48695;53.480;-6.300;2023-04-01T01:04:05;99659.69;;;12.55;75.15
61537;BME280;48695;53.480;-6.300;2023-04-01T01:11:41;99672.16;;;12.50;75.57
61537;BME280;48695;53.480;-6.300;2023-04-01T01:14:14;99668.78;;;12.48;75.44
61537;BME280;48695;53.480;-6.300;2023-04-01T01:16:44;99675.84;;;12.46;76.06
61537;BME280;48695;53.480;-6.300;2023-04-01T01:22:25;99670.81;;;12.41;76.22
61537;BME280;48695;53.480;-6.300;2023-04-01T01:27:12;99674.44;;;12.39;75.82
61537;BME280;48695;53.480;-6.300;2023-04-01T01:29:59;99682.94;;;12.44;75.66
61537;BME280;48695;53.480;-6.300;2023-04-01T01:32:51;99682.09;;;12.43;75.38
61537;BME280;48695;53.480;-6.300;2023-04-01T01:38:02;99679.56;;;12.42;74.60
61537;BME280;48695;53.480;-6.300;2023-04-01T01:40:31;99685.84;;;12.38;75.51
61537;BME280;48695;53.480;-6.300;2023-04-01T01:43:02;99679.97;;;12.33;75.87
61537;BME280;48695;53.480;-6.300;2023-04-01T01:45:30;99692.97;;;12.34;75.78
61537;BME280;48695;53.480;-6.300;2023-04-01T01:47:58;99691.28;;;12.33;76.28
61537;BME280;48695;53.480;-6.300;2023-04-01T01:50:26;99688.75;;;12.32;76.23
61537;BME280;48695;53.480;-6.300;2023-04-01T01:53:06;99692.13;;;12.34;75.93
61537;BME280;48695;53.480;-6.300;2023-04-01T01:55:35;99686.13;;;12.32;76.00
61537;BME280;48695;53.480;-6.300;2023-04-01T01:58:33;99698.22;;;12.34;76.00
61537;BME280;48695;53.480;-6.300;2023-04-01T02:01:08;99682.94;;;12.25;76.35
61537;BME280;48695;53.480;-6.300;2023-04-01T02:03:38;99692.22;;;12.32;75.71
61537;BME280;48695;53.480;-6.300;2023-04-01T02:06:08;99700.91;;;12.33;75.67
61537;BME280;48695;53.480;-6.300;2023-04-01T02:08:39;99700.06;;;12.32;75.75
61537;BME280;48695;53.480;-6.300;2023-04-01T02:11:08;99701.88;;;12.30;75.89
61537;BME280;48695;53.480;-6.300;2023-04-01T02:13:43;99708.78;;;12.33;75.91
61537;BME280;48695;53.480;-6.300;2023-04-01T02:16:20;99701.19;;;12.27;76.36
61537;BME280;48695;53.480;-6.300;2023-04-01T02:18:50;99714.13;;;12.30;76.51
61537;BME280;48695;53.480;-6.300;2023-04-01T02:21:20;99716.75;;;12.30;76.26
61537;BME280;48695;53.480;-6.300;2023-04-01T02:23:47;99720.28;;;12.29;76.06
61537;BME280;48695;53.480;-6.300;2023-04-01T02:26:14;99718.59;;;12.28;76.14
61537;BME280;48695;53.480;-6.300;2023-04-01T02:28:41;99703.31;;;12.18;76.24
61537;BME280;48695;53.480;-6.300;2023-04-01T02:31:10;99720.28;;;12.29;76.15
61537;BME280;48695;53.480;-6.300;2023-04-01T02:33:38;99721.97;;;12.30;76.29
61537;BME280;48695;53.480;-6.300;2023-04-01T02:36:04;99711.91;;;12.20;76.48
61537;BME280;48695;53.480;-6.300;2023-04-01T02:38:29;99720.56;;;12.23;76.58
61537;BME280;48695;53.480;-6.300;2023-04-01T02:41:00;99727.22;;;12.30;76.59
61537;BME280;48695;53.480;-6.300;2023-04-01T02:43:26;99727.38;;;12.27;76.33
61537;BME280;48695;53.480;-6.300;2023-04-01T02:45:52;99728.22;;;12.27;76.27
61537;BME280;48695;53.480;-6.300;2023-04-01T02:48:17;99728.22;;;12.27;76.23
61537;BME280;48695;53.480;-6.300;2023-04-01T02:50:43;99733.47;;;12.27;76.73
61537;BME280;48695;53.480;-6.300;2023-04-01T02:53:08;99732.72;;;12.24;76.73
61537;BME280;48695;53.480;-6.300;2023-04-01T02:55:34;99734.44;;;12.25;76.82
61537;BME280;48695;53.480;-6.300;2023-04-01T02:58:00;99734.31;;;12.28;76.55
61537;BME280;48695;53.480;-6.300;2023-04-01T03:00:25;99739.53;;;12.28;76.80
61537;BME280;48695;53.480;-6.300;2023-04-01T03:02:51;99739.53;;;12.28;76.49
61537;BME280;48695;53.480;-6.300;2023-04-01T03:05:17;99741.31;;;12.27;76.62
61537;BME280;48695;53.480;-6.300;2023-04-01T03:07:43;99736.97;;;12.26;76.46
61537;BME280;48695;53.480;-6.300;2023-04-01T03:10:08;99742.16;;;12.28;76.44
61537;BME280;48695;53.480;-6.300;2023-04-01T03:12:34;99750.00;;;12.28;76.88
61537;BME280;48695;53.480;-6.300;2023-04-01T03:15:00;99748.25;;;12.28;76.72
61537;BME280;48695;53.480;-6.300;2023-04-01T03:17:25;99757.78;;;12.29;76.86
61537;BME280;48695;53.480;-6.300;2023-04-01T03:19:50;99751.81;;;12.26;76.98
61537;BME280;48695;53.480;-6.300;2023-04-01T03:22:16;99754.31;;;12.29;77.20
61537;BME280;48695;53.480;-6.300;2023-04-01T03:24:41;99758.63;;;12.30;76.37
61537;BME280;48695;53.480;-6.300;2023-04-01T03:27:07;99765.84;;;12.25;76.56
61537;BME280;48695;53.480;-6.300;2023-04-01T03:29:32;99763.88;;;12.30;76.83
61537;BME280;48695;53.480;-6.300;2023-04-01T03:31:58;99764.72;;;12.30;76.55
61537;BME280;48695;53.480;-6.300;2023-04-01T03:34:24;99770.78;;;12.31;76.86
61537;BME280;48695;53.480;-6.300;2023-04-01T03:36:50;99751.25;;;12.19;76.46
61537;BME280;48695;53.480;-6.300;2023-04-01T03:39:16;99766.00;;;12.22;76.76
61537;BME280;48695;53.480;-6.300;2023-04-01T03:41:44;99765.84;;;12.25;76.55
61537;BME280;48695;53.480;-6.300;2023-04-01T03:44:09;99709.75;;;11.91;76.65
61537;BME280;48695;53.480;-6.300;2023-04-01T03:46:35;99778.59;;;12.32;76.55
61537;BME280;48695;53.480;-6.300;2023-04-01T03:49:01;99751.34;;;12.17;76.52
61537;BME280;48695;53.480;-6.300;2023-04-01T03:51:26;99781.25;;;12.31;76.12
61537;BME280;48695;53.480;-6.300;2023-04-01T03:53:51;99781.25;;;12.31;76.34
61537;BME280;48695;53.480;-6.300;2023-04-01T03:56:17;99766.88;;;12.20;76.58
61537;BME280;48695;53.480;-6.300;2023-04-01T03:58:42;99784.81;;;12.30;76.27
61537;BME280;48695;53.480;-6.300;2023-04-01T04:01:19;99787.44;;;12.30;76.09
61537;BME280;48695;53.480;-6.300;2023-04-01T04:03:46;99794.44;;;12.29;76.42
61537;BME280;48695;53.480;-6.300;2023-04-01T04:06:17;99783.44;;;12.21;76.47
61537;BME280;48695;53.480;-6.300;2023-04-01T04:08:43;99788.47;;;12.26;76.47
61537;BME280;48695;53.480;-6.300;2023-04-01T04:11:09;99747.03;;;11.96;76.26
61537;BME280;48695;53.480;-6.300;2023-04-01T04:13:35;99804.97;;;12.28;76.22
61537;BME280;48695;53.480;-6.300;2023-04-01T04:16:02;99798.09;;;12.25;76.46
61537;BME280;48695;53.480;-6.300;2023-04-01T04:18:28;99802.41;;;12.26;76.55
61537;BME280;48695;53.480;-6.300;2023-04-01T04:20:53;99808.53;;;12.27;76.28
61537;BME280;48695;53.480;-6.300;2023-04-01T04:23:19;99803.28;;;12.27;76.22
61537;BME280;48695;53.480;-6.300;2023-04-01T04:25:58;99804.06;;;12.29;76.10
61537;BME280;48695;53.480;-6.300;2023-04-01T04:28:25;99798.09;;;12.25;76.25
61537;BME280;48695;53.480;-6.300;2023-04-01T04:30:51;99807.72;;;12.25;76.44
61537;BME280;48695;53.480;-6.300;2023-04-01T04:33:17;99814.81;;;12.23;76.19
61537;BME280;48695;53.480;-6.300;2023-04-01T04:35:42;99811.34;;;12.22;76.14
61537;BME280;48695;53.480;-6.300;2023-04-01T04:38:08;99814.00;;;12.20;76.16
61537;BME280;48695;53.480;-6.300;2023-04-01T04:40:36;99821.84;;;12.20;75.91
61537;BME280;48695;53.480;-6.300;2023-04-01T04:43:01;99826.41;;;12.17;75.89
61537;BME280;48695;53.480;-6.300;2023-04-01T04:45:27;99829.06;;;12.15;76.26
61537;BME280;48695;53.480;-6.300;2023-04-01T04:47:52;99831.81;;;12.12;76.40
61537;BME280;48695;53.480;-6.300;2023-04-01T04:50:18;99782.78;;;11.75;76.60
61537;BME280;48695;53.480;-6.300;2023-04-01T04:52:43;99841.50;;;12.10;76.44
61537;BME280;48695;53.480;-6.300;2023-04-01T04:55:08;99845.78;;;12.11;76.66
61537;BME280;48695;53.480;-6.300;2023-04-01T04:57:34;99849.34;;;12.10;76.91
61537;BME280;48695;53.480;-6.300;2023-04-01T04:59:59;99851.94;;;12.10;76.63
61537;BME280;48695;53.480;-6.300;2023-04-01T05:02:25;99851.94;;;12.10;77.02
61537;BME280;48695;53.480;-6.300;2023-04-01T05:04:50;99836.78;;;11.98;77.03
61537;BME280;48695;53.480;-6.300;2023-04-01T05:07:15;99858.03;;;12.11;76.68
61537;BME280;48695;53.480;-6.300;2023-04-01T05:09:41;99870.16;;;12.13;77.11
61537;BME280;48695;53.480;-6.300;2023-04-01T05:12:06;99872.78;;;12.13;76.94
61537;BME280;48695;53.480;-6.300;2023-04-01T05:14:32;99871.06;;;12.12;77.10
61537;BME280;48695;53.480;-6.300;2023-04-01T05:16:57;99872.78;;;12.13;76.74
61537;BME280;48695;53.480;-6.300;2023-04-01T05:19:22;99885.78;;;12.15;77.01
61537;BME280;48695;53.480;-6.300;2023-04-01T05:21:48;99886.63;;;12.15;77.24
61537;BME280;48695;53.480;-6.300;2023-04-01T05:24:13;99890.94;;;12.16;76.80
61537;BME280;48695;53.480;-6.300;2023-04-01T05:26:39;99890.16;;;12.14;76.73
61537;BME280;48695;53.480;-6.300;2023-04-01T05:29:05;99898.81;;;12.16;76.93
61537;BME280;48695;53.480;-6.300;2023-04-01T05:31:30;99897.09;;;12.15;77.19
61537;BME280;48695;53.480;-6.300;2023-04-01T05:33:55;99902.34;;;12.15;77.21
61537;BME280;48695;53.480;-6.300;2023-04-01T05:36:21;99914.47;;;12.18;76.86
61537;BME280;48695;53.480;-6.300;2023-04-01T05:38:47;99910.16;;;12.17;76.84
61537;BME280;48695;53.480;-6.300;2023-04-01T05:41:13;99921.47;;;12.17;77.23
61537;BME280;48695;53.480;-6.300;2023-04-01T05:43:39;99926.69;;;12.17;76.86
61537;BME280;48695;53.480;-6.300;2023-04-01T05:46:05;99866.28;;;11.80;76.93
61537;BME280;48695;53.480;-6.300;2023-04-01T05:48:33;99934.41;;;12.20;76.98
61537;BME280;48695;53.480;-6.300;2023-04-01T05:51:00;99944.09;;;12.18;76.87
61537;BME280;48695;53.480;-6.300;2023-04-01T05:53:25;99936.31;;;12.17;76.90
61537;BME280;48695;53.480;-6.300;2023-04-01T05:55:50;99944.94;;;12.19;76.88
61537;BME280;48695;53.480;-6.300;2023-04-01T05:58:16;99944.34;;;12.12;76.96
61537;BME280;48695;53.480;-6.300;2023-04-01T06:00:41;99949.34;;;12.18;76.84
61537;BME280;48695;53.480;-6.300;2023-04-01T06:03:07;99957.25;;;12.17;77.29
61537;BME280;48695;53.480;-6.300;2023-04-01T06:05:41;99951.28;;;12.13;76.81
61537;BME280;48695;53.480;-6.300;2023-04-01T06:08:20;99959.81;;;12.18;76.84
61537;BME280;48695;53.480;-6.300;2023-04-01T06:24:55;99998.41;;;12.13;77.14
61537;BME280;48695;53.480;-6.300;2023-04-01T06:33:02;100019.44;;;12.10;77.47
61537;BME280;48695;53.480;-6.300;2023-04-01T06:44:16;100036.75;;;12.14;76.86
61537;BME280;48695;53.480;-6.300;2023-04-01T06:46:56;100041.97;;;12.14;77.51
61537;BME280;48695;53.480;-6.300;2023-04-01T06:57:52;100049.91;;;12.13;77.57
61537;BME280;48695;53.480;-6.300;2023-04-01T07:00:29;100064.50;;;12.18;77.26
61537;BME280;48695;53.480;-6.300;2023-04-01T07:03:04;100080.22;;;12.18;77.62
61537;BME280;48695;53.480;-6.300;2023-04-01T07:05:33;100076.66;;;12.19;77.70
61537;BME280;48695;53.480;-6.300;2023-04-01T07:08:02;100085.34;;;12.22;77.60
61537;BME280;48695;53.480;-6.300;2023-04-01T07:13:29;100097.38;;;12.26;77.46
61537;BME280;48695;53.480;-6.300;2023-04-01T07:16:18;100096.41;;;12.28;77.21
61537;BME280;48695;53.480;-6.300;2023-04-01T07:18:50;100100.78;;;12.28;77.40
61537;BME280;48695;53.480;-6.300;2023-04-01T07:21:34;100107.63;;;12.32;76.93
61537;BME280;48695;53.480;-6.300;2023-04-01T07:24:05;100109.31;;;12.33;77.48
61537;BME280;48695;53.480;-6.300;2023-04-01T07:26:34;100123.34;;;12.32;77.47
61537;BME280;48695;53.480;-6.300;2023-04-01T07:28:59;100123.44;;;12.29;77.50
61537;BME280;48695;53.480;-6.300;2023-04-01T07:51:02;100173.25;;;12.49;76.99
61537;BME280;48695;53.480;-6.300;2023-04-01T07:53:36;100173.25;;;12.49;77.05
61537;BME280;48695;53.480;-6.300;2023-04-01T07:56:14;100182.72;;;12.53;77.25
61537;BME280;48695;53.480;-6.300;2023-04-01T07:58:47;100182.72;;;12.53;77.21
61537;BME280;48695;53.480;-6.300;2023-04-01T08:04:15;100194.09;;;12.52;77.25
61537;BME280;48695;53.480;-6.300;2023-04-01T08:17:28;100228.59;;;12.63;77.04
61537;BME280;48695;53.480;-6.300;2023-04-01T08:23:11;100225.28;;;12.58;76.80
61537;BME280;48695;53.480;-6.300;2023-04-01T08:25:42;100241.50;;;12.68;76.85
61537;BME280;48695;53.480;-6.300;2023-04-01T08:28:15;100251.00;;;12.70;77.02
61537;BME280;48695;53.480;-6.300;2023-04-01T08:30:58;100228.69;;;12.60;76.71
61537;BME280;48695;53.480;-6.300;2023-04-01T08:33:30;100235.63;;;12.61;77.22
61537;BME280;48695;53.480;-6.300;2023-04-01T08:41:34;100279.13;;;12.89;76.93
61537;BME280;48695;53.480;-6.300;2023-04-01T08:52:37;100300.53;;;13.00;76.69
61537;BME280;48695;53.480;-6.300;2023-04-01T09:00:36;100317.72;;;13.07;76.44
61537;BME280;48695;53.480;-6.300;2023-04-01T09:14:19;100338.75;;;13.29;76.44
61537;BME280;48695;53.480;-6.300;2023-04-01T09:35:50;100372.75;;;13.74;75.75
61537;BME280;48695;53.480;-6.300;2023-04-01T09:38:41;100376.16;;;13.76;75.33
61537;BME280;48695;53.480;-6.300;2023-04-01T09:44:02;100387.34;;;13.82;75.39
61537;BME280;48695;53.480;-6.300;2023-04-01T09:52:20;100403.47;;;13.93;75.20
61537;BME280;48695;53.480;-6.300;2023-04-01T10:03:06;100420.19;;;14.12;75.08
61537;BME280;48695;53.480;-6.300;2023-04-01T10:11:44;100416.25;;;14.22;74.80
61537;BME280;48695;53.480;-6.300;2023-04-01T10:20:25;100426.28;;;14.55;74.85
61537;BME280;48695;53.480;-6.300;2023-04-01T10:36:55;100469.78;;;15.20;74.05
61537;BME280;48695;53.480;-6.300;2023-04-01T10:48:19;100498.34;;;15.48;73.39
61537;BME280;48695;53.480;-6.300;2023-04-01T10:51:14;100498.13;;;15.53;73.32
61537;BME280;48695;53.480;-6.300;2023-04-01T10:59:13;100514.31;;;15.64;71.95
61537;BME280;48695;53.480;-6.300;2023-04-01T11:10:26;100528.19;;;15.87;71.88
61537;BME280;48695;53.480;-6.300;2023-04-01T11:40:38;100585.00;;;17.34;71.20
61537;BME280;48695;53.480;-6.300;2023-04-01T11:43:16;100581.31;;;17.54;71.16
61537;BME280;48695;53.480;-6.300;2023-04-01T11:45:55;100586.50;;;17.71;70.51
61537;BME280;48695;53.480;-6.300;2023-04-01T11:51:03;100594.84;;;17.97;69.48
61537;BME280;48695;53.480;-6.300;2023-04-01T11:56:14;100606.69;;;18.37;69.25
61537;BME280;48695;53.480;-6.300;2023-04-01T12:01:48;100600.84;;;18.78;69.84
61537;BME280;48695;53.480;-6.300;2023-04-01T12:07:33;100621.75;;;19.27;69.00
61537;BME280;48695;53.480;-6.300;2023-04-01T12:16:15;100641.41;;;19.67;67.65
61537;BME280;48695;53.480;-6.300;2023-04-01T12:24:56;100637.16;;;19.93;67.64
61537;BME280;48695;53.480;-6.300;2023-04-01T12:41:32;100664.28;;;20.93;66.04
61537;BME280;48695;53.480;-6.300;2023-04-01T12:54:50;100681.16;;;22.09;64.09
61537;BME280;48695;53.480;-6.300;2023-04-01T13:14:06;100711.03;;;22.38;61.59
61537;BME280;48695;53.480;-6.300;2023-04-01T13:16:48;100708.56;;;22.47;62.75
61537;BME280;48695;53.480;-6.300;2023-04-01T13:19:25;100716.53;;;22.47;62.87
61537;BME280;48695;53.480;-6.300;2023-04-01T13:27:41;100718.09;;;22.50;62.85
61537;BME280;48695;53.480;-6.300;2023-04-01T13:32:47;100729.00;;;22.47;61.78
61537;BME280;48695;53.480;-6.300;2023-04-01T13:41:25;100750.94;;;22.74;62.23
61537;BME280;48695;53.480;-6.300;2023-04-01T13:44:11;100753.28;;;22.79;61.70
61537;BME280;48695;53.480;-6.300;2023-04-01T13:49:53;100754.84;;;22.94;62.34
61537;BME280;48695;53.480;-6.300;2023-04-01T13:52:41;100757.16;;;22.99;62.08
61537;BME280;48695;53.480;-6.300;2023-04-01T14:03:40;100776.25;;;22.80;61.73
61537;BME280;48695;53.480;-6.300;2023-04-01T14:06:31;100787.38;;;22.74;62.53
61537;BME280;48695;53.480;-6.300;2023-04-01T14:34:18;100836.00;;;21.34;61.85
61537;BME280;48695;53.480;-6.300;2023-04-01T14:37:15;100835.75;;;21.10;61.60
61537;BME280;48695;53.480;-6.300;2023-04-01T14:47:46;100855.91;;;20.57;61.24
61537;BME280;48695;53.480;-6.300;2023-04-01T14:50:15;100860.91;;;20.47;64.63
61537;BME280;48695;53.480;-6.300;2023-04-01T14:52:57;100868.56;;;20.38;63.80
61537;BME280;48695;53.480;-6.300;2023-04-01T14:55:48;100849.69;;;20.14;63.14
61537;BME280;48695;53.480;-6.300;2023-04-01T14:58:17;100871.06;;;20.11;64.64
61537;BME280;48695;53.480;-6.300;2023-04-01T15:04:14;100883.53;;;19.94;64.96
61537;BME280;48695;53.480;-6.300;2023-04-01T15:07:02;100886.63;;;19.87;63.91
61537;BME280;48695;53.480;-6.300;2023-04-01T15:18:09;100905.81;;;19.44;66.26
61537;BME280;48695;53.480;-6.300;2023-04-01T15:23:40;100922.22;;;19.19;67.47
61537;BME280;48695;53.480;-6.300;2023-04-01T15:26:42;100921.34;;;19.19;67.06
61537;BME280;48695;53.480;-6.300;2023-04-01T15:32:25;100921.44;;;19.02;66.46
61537;BME280;48695;53.480;-6.300;2023-04-01T15:35:23;100940.47;;;18.92;68.26
61537;BME280;48695;53.480;-6.300;2023-04-01T15:38:07;100955.88;;;18.84;67.91
61537;BME280;48695;53.480;-6.300;2023-04-01T15:40:57;100955.50;;;18.75;67.81
61537;BME280;48695;53.480;-6.300;2023-04-01T15:57:44;100979.94;;;18.28;69.22
61537;BME280;48695;53.480;-6.300;2023-04-01T16:00:28;100990.75;;;18.23;67.76
61537;BME280;48695;53.480;-6.300;2023-04-01T16:16:44;100992.13;;;17.77;70.17
61537;BME280;48695;53.480;-6.300;2023-04-01T16:21:54;101035.16;;;17.79;69.33
61537;BME280;48695;53.480;-6.300;2023-04-01T16:25:14;101039.75;;;17.75;69.73
61537;BME280;48695;53.480;-6.300;2023-04-01T16:27:49;101034.75;;;17.69;69.27
61537;BME280;48695;53.480;-6.300;2023-04-01T16:33:22;101035.28;;;17.57;69.86
61537;BME280;48695;53.480;-6.300;2023-04-01T16:36:07;101052.28;;;17.51;70.28
61537;BME280;48695;53.480;-6.300;2023-04-01T16:38:46;101064.13;;;17.43;70.23
61537;BME280;48695;53.480;-6.300;2023-04-01T16:43:50;101073.56;;;17.28;71.86
61537;BME280;48695;53.480;-6.300;2023-04-01T16:51:35;101081.00;;;16.99;67.30
61537;BME280;48695;53.480;-6.300;2023-04-01T16:56:52;101102.91;;;16.59;65.46
61537;BME280;48695;53.480;-6.300;2023-04-01T16:59:27;101088.34;;;16.28;66.76
61537;BME280;48695;53.480;-6.300;2023-04-01T17:02:08;101080.63;;;16.02;66.89
61537;BME280;48695;53.480;-6.300;2023-04-01T17:12:38;101128.09;;;15.52;67.63
61537;BME280;48695;53.480;-6.300;2023-04-01T17:26:13;101167.16;;;14.88;68.10
61537;BME280;48695;53.480;-6.300;2023-04-01T17:29:07;101166.81;;;14.72;67.44
61537;BME280;48695;53.480;-6.300;2023-04-01T17:31:45;101185.63;;;14.58;68.22
61537;BME280;48695;53.480;-6.300;2023-04-01T17:34:39;101194.78;;;14.45;68.65
61537;BME280;48695;53.480;-6.300;2023-04-01T17:40:21;101190.22;;;14.22;68.94
61537;BME280;48695;53.480;-6.300;2023-04-01T17:43:00;101199.22;;;14.13;68.95
61537;BME280;48695;53.480;-6.300;2023-04-01T17:45:36;101206.56;;;14.02;68.79
61537;BME280;48695;53.480;-6.300;2023-04-01T17:50:58;101215.88;;;13.83;69.11
61537;BME280;48695;53.480;-6.300;2023-04-01T17:56:03;101227.75;;;13.65;69.27
61537;BME280;48695;53.480;-6.300;2023-04-01T18:09:29;101273.16;;;13.34;69.88
61537;BME280;48695;53.480;-6.300;2023-04-01T18:17:39;101276.97;;;13.19;69.47
61537;BME280;48695;53.480;-6.300;2023-04-01T18:20:53;101274.53;;;13.12;69.45
61537;BME280;48695;53.480;-6.300;2023-04-01T18:23:00;101286.03;;;13.06;69.60
61537;BME280;48695;53.480;-6.300;2023-04-01T18:25:37;101293.13;;;13.01;69.55
61537;BME280;48695;53.480;-6.300;2023-04-01T18:31:14;101303.91;;;12.89;69.37
61537;BME280;48695;53.480;-6.300;2023-04-01T18:38:48;101328.75;;;12.72;69.70
61537;BME280;48695;53.480;-6.300;2023-04-01T18:41:42;101330.50;;;12.70;69.48
61537;BME280;48695;53.480;-6.300;2023-04-01T18:47:03;101341.13;;;12.64;69.62
61537;BME280;48695;53.480;-6.300;2023-04-01T18:52:43;101319.63;;;12.49;69.84
61537;BME280;48695;53.480;-6.300;2023-04-01T18:55:32;101291.28;;;12.26;69.67
61537;BME280;48695;53.480;-6.300;2023-04-01T18:58:16;101356.81;;;12.66;69.65
61537;BME280;48695;53.480;-6.300;2023-04-01T19:00:49;101360.28;;;12.66;69.82
61537;BME280;48695;53.480;-6.300;2023-04-01T19:06:18;101363.09;;;12.59;69.40
61537;BME280;48695;53.480;-6.300;2023-04-01T19:08:45;101387.34;;;12.68;69.60
61537;BME280;48695;53.480;-6.300;2023-04-01T19:21:41;101398.59;;;12.73;69.00
61537;BME280;48695;53.480;-6.300;2023-04-01T19:39:55;101436.19;;;12.71;68.39
61537;BME280;48695;53.480;-6.300;2023-04-01T19:50:33;101461.63;;;12.66;67.82
61537;BME280;48695;53.480;-6.300;2023-04-01T19:53:15;101458.16;;;12.65;67.84
61537;BME280;48695;53.480;-6.300;2023-04-01T20:00:57;101474.84;;;12.60;67.52
61537;BME280;48695;53.480;-6.300;2023-04-01T20:03:48;101455.03;;;12.45;67.86
61537;BME280;48695;53.480;-6.300;2023-04-01T20:14:49;101477.13;;;12.32;67.12
61537;BME280;48695;53.480;-6.300;2023-04-01T20:19:58;101507.50;;;12.42;67.50
61537;BME280;48695;53.480;-6.300;2023-04-01T20:25:20;101515.34;;;12.40;67.44
61537;BME280;48695;53.480;-6.300;2023-04-01T20:27:53;101512.78;;;12.39;67.47
61537;BME280;48695;53.480;-6.300;2023-04-01T20:33:33;101520.63;;;12.39;67.48
61537;BME280;48695;53.480;-6.300;2023-04-01T20:36:31;101526.78;;;12.38;67.70
61537;BME280;48695;53.480;-6.300;2023-04-01T20:50:32;101549.59;;;12.30;66.96
61537;BME280;48695;53.480;-6.300;2023-04-01T20:55:56;101559.25;;;12.28;66.53
61537;BME280;48695;53.480;-6.300;2023-04-01T21:07:19;101567.16;;;12.23;66.76
61537;BME280;48695;53.480;-6.300;2023-04-01T21:09:37;101583.81;;;12.19;66.60
61537;BME280;48695;53.480;-6.300;2023-04-01T21:15:19;101573.41;;;12.14;67.32
61537;BME280;48695;53.480;-6.300;2023-04-01T21:23:37;101600.50;;;12.10;67.26
61537;BME280;48695;53.480;-6.300;2023-04-01T21:26:19;101603.16;;;12.09;66.93
61537;BME280;48695;53.480;-6.300;2023-04-01T21:34:25;101620.66;;;12.05;66.96
61537;BME280;48695;53.480;-6.300;2023-04-01T21:42:58;101625.16;;;11.97;66.96
61537;BME280;48695;53.480;-6.300;2023-04-01T22:07:10;101647.22;;;11.73;66.68
61537;BME280;48695;53.480;-6.300;2023-04-01T22:09:40;101674.19;;;11.81;66.59
61537;BME280;48695;53.480;-6.300;2023-04-01T22:12:17;101676.81;;;11.78;67.28
61537;BME280;48695;53.480;-6.300;2023-04-01T22:20:33;101695.13;;;11.80;67.37
61537;BME280;48695;53.480;-6.300;2023-04-01T22:26:04;101705.59;;;11.80;67.86
61537;BME280;48695;53.480;-6.300;2023-04-01T22:28:58;101697.75;;;11.78;67.38
61537;BME280;48695;53.480;-6.300;2023-04-01T22:31:29;101700.34;;;11.80;67.61
61537;BME280;48695;53.480;-6.300;2023-04-01T22:34:19;101697.72;;;11.81;67.79
61537;BME280;48695;53.480;-6.300;2023-04-01T22:37:06;101696.91;;;11.78;67.83
61537;BME280;48695;53.480;-6.300;2023-04-01T22:39:48;101700.34;;;11.80;68.05
61537;BME280;48695;53.480;-6.300;2023-04-01T22:50:48;101716.09;;;11.77;68.05
61537;BME280;48695;53.480;-6.300;2023-04-01T22:55:46;101723.91;;;11.80;67.92
61537;BME280;48695;53.480;-6.300;2023-04-01T22:58:17;101727.38;;;11.80;68.10
61537;BME280;48695;53.480;-6.300;2023-04-01T23:00:48;101712.69;;;11.68;68.42
61537;BME280;48695;53.480;-6.300;2023-04-01T23:03:34;101731.75;;;11.83;68.04
61537;BME280;48695;53.480;-6.300;2023-04-01T23:06:04;101735.28;;;11.82;68.13
61537;BME280;48695;53.480;-6.300;2023-04-01T23:11:30;101743.97;;;11.84;68.14
61537;BME280;48695;53.480;-6.300;2023-04-01T23:14:13;101752.69;;;11.83;68.09
61537;BME280;48695;53.480;-6.300;2023-04-01T23:16:51;101744.84;;;11.81;67.90
61537;BME280;48695;53.480;-6.300;2023-04-01T23:19:37;101737.91;;;11.74;67.77
61537;BME280;48695;53.480;-6.300;2023-04-01T23:22:25;101750.97;;;11.82;67.76
61537;BME280;48695;53.480;-6.300;2023-04-01T23:27:37;101751.84;;;11.78;67.77
61537;BME280;48695;53.480;-6.300;2023-04-01T23:38:17;101759.84;;;11.62;67.89
61537;BME280;48695;53.480;-6.300;2023-04-01T23:40:43;101761.66;;;11.57;67.45
61537;BME280;48695;53.480;-6.300;2023-04-01T23:43:34;101770.38;;;11.58;67.72
61537;BME280;48695;53.480;-6.300;2023-04-01T23:46:03;101757.47;;;11.41;68.06